createdAt,value
2022-10-05T22:04:12.811Z,23.20
2022-10-05T22:06:43.236Z,23.30
2022-10-05T22:09:12.603Z,23.20
2022-10-05T22:13:13.642Z,23.40
2022-10-05T22:15:40.927Z,23.40
2022-10-05T22:18:15.709Z,23.40
2022-10-05T22:20:42.814Z,23.30
2022-10-05T22:23:09.837Z,23.30
2022-10-05T22:25:36.733Z,23.20
2022-10-05T22:28:05.504Z,23.10
2022-10-05T22:30:33.274Z,23.20
2022-10-05T22:32:59.950Z,23.10
2022-10-05T22:38:44.912Z,23.10
2022-10-05T22:41:12.419Z,23.10
2022-10-05T22:43:39.466Z,23.10
2022-10-05T22:46:13.407Z,23.10
2022-10-05T22:48:40.528Z,23.10
2022-10-05T22:51:09.695Z,23.10
2022-10-05T22:53:36.536Z,23.10
2022-10-05T22:56:11.644Z,23.20
2022-10-05T22:58:39.046Z,23.40
2022-10-05T23:01:11.366Z,23.50
2022-10-05T23:03:38.118Z,23.60
2022-10-05T23:06:10.846Z,23.70
2022-10-05T23:08:38.780Z,23.70
2022-10-05T23:11:21.898Z,23.80
2022-10-05T23:13:48.632Z,23.80
2022-10-05T23:16:17.917Z,23.80
2022-10-05T23:21:31.607Z,23.80
2022-10-05T23:23:58.263Z,23.80
2022-10-05T23:26:25.727Z,23.80
2022-10-05T23:28:52.766Z,23.90
2022-10-05T23:31:22.191Z,23.70
2022-10-05T23:33:49.093Z,23.80
2022-10-05T23:36:18.887Z,23.80
2022-10-05T23:38:46.146Z,23.90
2022-10-05T23:41:13.476Z,23.70
2022-10-05T23:43:40.443Z,23.70
2022-10-05T23:46:08.133Z,23.70
2022-10-05T23:48:38.210Z,23.60
2022-10-05T23:51:10.417Z,23.50
2022-10-05T23:53:37.468Z,23.50
2022-10-05T23:56:04.687Z,23.50
2022-10-05T23:58:31.834Z,23.50
